Time;durP1;ratioP1;P1;durP2;ratioP2;P2;SDS_P1;SDS_P2;PMS_P1;PMS_P2;Temp;Humidity;BMP_temperature;BMP_pressure;BME280_temperature;BME280_humidity;BME280_pressure;Samples;Min_cycle;Max_cycle;Signal;HPM_P1;HPM_P2
2023/07/25 00:01:24;;;;;;;;;;;16.30;99.90;;;;;;5138779;28;20401;-60
2023/07/25 00:03:49;;;;;;;;;;;16.30;99.90;;;;;;5138958;28;19911;-60
2023/07/25 00:06:15;;;;;;;;;;;16.30;99.90;;;;;;5138628;28;19912;-60
2023/07/25 00:08:40;;;;;;;;;;;16.20;99.90;;;;;;5138670;28;19908;-60
2023/07/25 00:11:11;;;;;;;;;;;16.20;99.90;;;;;;5138850;28;19945;-60
2023/07/25 00:13:37;;;;;;;;;;;16.20;99.90;;;;;;5139119;28;20260;-60
2023/07/25 00:16:03;;;;;;;;;;;16.10;99.90;;;;;;5138331;28;19918;-60
2023/07/25 00:18:28;;;;;;;;;;;16.10;99.90;;;;;;5138992;28;20294;-60
2023/07/25 00:20:55;;;;;;;;;;;16.00;99.90;;;;;;5138230;28;19926;-60
2023/07/25 00:23:20;;;;;;;;;;;16.00;99.90;;;;;;5138932;28;19912;-60
2023/07/25 00:25:46;;;;;;;;;;;15.90;99.90;;;;;;5138818;28;19994;-60
2023/07/25 00:28:11;;;;;;;;;;;15.90;99.90;;;;;;5140995;27;19907;-60
2023/07/25 00:30:39;;;;;;;;;;;15.90;99.90;;;;;;5142886;27;20319;-60
2023/07/25 00:33:05;;;;;;;;;;;15.80;99.90;;;;;;5142070;27;19908;-60
2023/07/25 00:35:30;;;;;;;;;;;15.80;99.90;;;;;;5142694;27;20007;-60
2023/07/25 00:37:56;;;;;;;;;;;15.70;99.90;;;;;;5142103;27;19908;-60
2023/07/25 00:40:22;;;;;;;;;;;15.70;99.90;;;;;;5140633;27;19915;-60
2023/07/25 00:42:53;;;;;;;;;;;15.70;99.90;;;;;;5142077;27;20270;-60
2023/07/25 00:45:18;;;;;;;;;;;15.60;99.90;;;;;;5123396;27;19911;-60
2023/07/25 00:47:44;;;;;;;;;;;15.60;99.90;;;;;;5141854;27;19907;-60
2023/07/25 00:50:09;;;;;;;;;;;15.50;99.90;;;;;;5142451;27;19915;-60
2023/07/25 00:52:35;;;;;;;;;;;15.50;99.90;;;;;;5141843;27;19914;-60
2023/07/25 00:55:02;;;;;;;;;;;15.50;99.90;;;;;;5141973;27;20331;-60
2023/07/25 00:57:27;;;;;;;;;;;15.50;99.90;;;;;;5139917;27;20368;-60
2023/07/25 00:59:53;;;;;;;;;;;15.50;99.90;;;;;;5141783;27;19939;-60
2023/07/25 01:02:18;;;;;;;;;;;15.50;99.90;;;;;;5125925;27;19930;-60
2023/07/25 01:04:44;;;;;;;;;;;15.50;99.90;;;;;;5131760;27;19919;-60
2023/07/25 01:07:12;;;;;;;;;;;15.40;99.90;;;;;;5108521;27;19972;-60
2023/07/25 01:09:38;;;;;;;;;;;15.40;99.90;;;;;;5130806;27;19915;-60
2023/07/25 01:12:04;;;;;;;;;;;15.40;99.90;;;;;;5128829;27;19915;-60
2023/07/25 01:14:31;;;;;;;;;;;15.40;99.90;;;;;;5129732;27;19933;-60
2023/07/25 01:16:57;;;;;;;;;;;15.40;99.90;;;;;;5127979;27;19912;-60
2023/07/25 01:19:28;;;;;;;;;;;15.40;99.90;;;;;;5131288;27;19920;-60
2023/07/25 01:21:53;;;;;;;;;;;15.40;99.90;;;;;;5128328;27;19912;-60
2023/07/25 01:24:19;;;;;;;;;;;15.30;99.90;;;;;;5128919;27;19915;-60
2023/07/25 01:26:44;;;;;;;;;;;15.40;99.90;;;;;;5128689;27;19934;-60
2023/07/25 01:29:10;;;;;;;;;;;15.40;99.90;;;;;;5129210;27;19912;-60
2023/07/25 01:31:36;;;;;;;;;;;15.40;99.90;;;;;;5130265;27;20296;-60
2023/07/25 01:34:01;;;;;;;;;;;15.30;99.90;;;;;;5127909;27;20259;-60
2023/07/25 01:36:27;;;;;;;;;;;15.40;99.90;;;;;;5128859;27;19915;-60
2023/07/25 01:38:52;;;;;;;;;;;15.40;99.90;;;;;;5127288;27;19911;-60
2023/07/25 01:41:18;;;;;;;;;;;15.40;99.90;;;;;;5130121;27;20480;-60
2023/07/25 01:43:44;;;;;;;;;;;15.40;99.90;;;;;;5126152;27;20469;-60
2023/07/25 01:46:09;;;;;;;;;;;15.40;99.90;;;;;;5131074;27;19915;-60
2023/07/25 01:48:35;;;;;;;;;;;15.40;99.90;;;;;;5126929;27;20003;-60
2023/07/25 01:51:02;;;;;;;;;;;15.40;99.90;;;;;;5129378;27;20359;-60
2023/07/25 01:53:27;;;;;;;;;;;15.40;99.90;;;;;;5128044;27;19911;-60
2023/07/25 01:55:53;;;;;;;;;;;15.40;99.90;;;;;;5129175;27;19939;-60
2023/07/25 01:58:19;;;;;;;;;;;15.30;99.90;;;;;;5126552;27;19912;-60
2023/07/25 02:00:44;;;;;;;;;;;15.30;99.90;;;;;;5130772;27;19908;-60
2023/07/25 02:03:11;;;;;;;;;;;15.30;99.90;;;;;;5125812;27;20007;-60
2023/07/25 02:05:36;;;;;;;;;;;15.30;99.90;;;;;;5130126;27;19915;-60
2023/07/25 02:08:02;;;;;;;;;;;15.30;99.90;;;;;;5127060;27;19911;-60
2023/07/25 02:10:29;;;;;;;;;;;15.30;99.90;;;;;;5128410;27;19912;-60
2023/07/25 02:12:56;;;;;;;;;;;15.30;99.90;;;;;;5127047;27;19911;-60
2023/07/25 02:15:21;;;;;;;;;;;15.30;99.90;;;;;;5130132;27;19915;-60
2023/07/25 02:17:47;;;;;;;;;;;15.20;99.90;;;;;;5125198;27;19912;-60
2023/07/25 02:20:12;;;;;;;;;;;15.30;99.90;;;;;;5130088;27;19930;-60
2023/07/25 02:22:38;;;;;;;;;;;15.30;99.90;;;;;;5108102;27;19954;-60
2023/07/25 02:25:04;;;;;;;;;;;15.30;99.90;;;;;;5128501;27;19908;-60
2023/07/25 02:27:29;;;;;;;;;;;15.30;99.90;;;;;;5127084;27;20399;-60
2023/07/25 02:29:55;;;;;;;;;;;15.30;99.90;;;;;;5128751;27;19934;-60
2023/07/25 02:32:21;;;;;;;;;;;15.30;99.90;;;;;;5125825;27;19963;-60
2023/07/25 02:34:46;;;;;;;;;;;15.30;99.90;;;;;;5130046;27;19908;-60
2023/07/25 02:37:12;;;;;;;;;;;15.30;99.90;;;;;;5129329;27;19911;-60
2023/07/25 02:39:37;;;;;;;;;;;15.40;99.90;;;;;;5126109;27;19971;-60
2023/07/25 02:42:03;;;;;;;;;;;15.40;99.90;;;;;;5125525;27;19908;-60
2023/07/25 02:44:29;;;;;;;;;;;15.40;99.90;;;;;;5119818;28;19945;-60
2023/07/25 02:46:54;;;;;;;;;;;15.40;99.90;;;;;;5119490;27;19961;-60
2023/07/25 02:49:20;;;;;;;;;;;15.30;99.90;;;;;;5119265;28;19992;-60
2023/07/25 02:51:45;;;;;;;;;;;15.30;99.90;;;;;;5119424;28;19908;-60
2023/07/25 02:54:11;;;;;;;;;;;15.30;99.90;;;;;;5119175;28;19911;-60
2023/07/25 02:56:36;;;;;;;;;;;15.30;99.90;;;;;;5100730;28;19908;-60
2023/07/25 02:59:02;;;;;;;;;;;15.20;99.90;;;;;;5100515;28;19915;-60
2023/07/25 03:01:28;;;;;;;;;;;15.20;99.90;;;;;;5119208;28;19947;-60
2023/07/25 03:03:53;;;;;;;;;;;15.20;99.90;;;;;;5118881;27;19912;-60
2023/07/25 03:06:19;;;;;;;;;;;15.10;99.90;;;;;;5119110;28;19959;-60
2023/07/25 03:08:45;;;;;;;;;;;15.10;99.90;;;;;;5118687;27;19911;-60
2023/07/25 03:11:11;;;;;;;;;;;15.00;99.90;;;;;;5118960;28;19915;-60
2023/07/25 03:13:37;;;;;;;;;;;15.00;99.90;;;;;;5118782;28;19911;-60
2023/07/25 03:16:03;;;;;;;;;;;15.00;99.90;;;;;;5119051;28;19912;-60
2023/07/25 03:18:28;;;;;;;;;;;14.90;99.90;;;;;;5118877;28;19954;-60
2023/07/25 03:20:54;;;;;;;;;;;14.90;99.90;;;;;;5118457;28;19920;-60
2023/07/25 03:23:19;;;;;;;;;;;14.00;99.90;;;;;;5119222;28;20358;-60
2023/07/25 03:25:45;;;;;;;;;;;14.90;99.90;;;;;;5118859;28;19958;-60
2023/07/25 03:28:10;;;;;;;;;;;14.80;99.90;;;;;;5118427;27;19937;-60
2023/07/25 03:30:36;;;;;;;;;;;14.80;99.90;;;;;;5118588;28;20813;-60
2023/07/25 03:33:02;;;;;;;;;;;14.80;99.90;;;;;;5118775;28;19919;-60
2023/07/25 03:35:27;;;;;;;;;;;14.80;99.90;;;;;;5118710;28;19915;-60
2023/07/25 03:37:53;;;;;;;;;;;14.70;99.90;;;;;;5118620;28;19916;-60
2023/07/25 03:40:18;;;;;;;;;;;14.80;99.90;;;;;;5118957;28;19912;-60
2023/07/25 03:42:44;;;;;;;;;;;14.80;99.90;;;;;;5118455;28;19912;-60
2023/07/25 03:45:10;;;;;;;;;;;14.80;99.90;;;;;;5118655;28;19930;-60
2023/07/25 03:47:35;;;;;;;;;;;14.80;99.90;;;;;;5118590;28;19912;-60
2023/07/25 03:50:01;;;;;;;;;;;14.80;99.90;;;;;;5118635;28;19999;-60
2023/07/25 03:52:27;;;;;;;;;;;14.80;99.90;;;;;;5118186;28;19907;-60
2023/07/25 03:54:52;;;;;;;;;;;14.80;99.90;;;;;;5118364;28;20026;-60
2023/07/25 03:57:18;;;;;;;;;;;14.80;99.90;;;;;;5118267;28;19908;-60
2023/07/25 03:59:43;;;;;;;;;;;14.80;99.90;;;;;;5118634;28;19994;-60
2023/07/25 04:02:09;;;;;;;;;;;14.70;99.90;;;;;;5119487;28;19990;-60
2023/07/25 04:04:35;;;;;;;;;;;14.70;99.90;;;;;;5122398;27;19912;-60
2023/07/25 04:07:00;;;;;;;;;;;14.70;99.90;;;;;;5122944;28;19907;-60
2023/07/25 04:09:26;;;;;;;;;;;14.70;99.90;;;;;;5103827;28;19959;-60
2023/07/25 04:11:51;;;;;;;;;;;14.80;99.90;;;;;;5122870;28;19911;-60
2023/07/25 04:14:17;;;;;;;;;;;14.80;99.90;;;;;;5122164;27;20006;-60
2023/07/25 04:16:43;;;;;;;;;;;14.80;99.90;;;;;;5122311;28;20256;-60
2023/07/25 04:19:08;;;;;;;;;;;14.80;99.90;;;;;;5122439;27;19912;-60
2023/07/25 04:21:34;;;;;;;;;;;14.80;99.90;;;;;;5122044;28;19911;-60
2023/07/25 04:23:59;;;;;;;;;;;14.80;99.90;;;;;;5122365;28;19912;-60
2023/07/25 04:26:25;;;;;;;;;;;14.80;99.90;;;;;;5122059;28;19930;-60
2023/07/25 04:28:50;;;;;;;;;;;14.80;99.90;;;;;;5121977;27;19941;-60
2023/07/25 04:31:16;;;;;;;;;;;14.70;99.90;;;;;;5122211;28;19942;-60
2023/07/25 04:33:42;;;;;;;;;;;14.70;99.90;;;;;;5122097;28;20347;-60
2023/07/25 04:36:07;;;;;;;;;;;14.70;99.90;;;;;;5122016;28;19957;-60
2023/07/25 04:38:36;;;;;;;;;;;14.70;99.90;;;;;;5121654;28;19920;-60
2023/07/25 04:41:02;;;;;;;;;;;14.60;99.90;;;;;;5136605;27;19919;-60
2023/07/25 04:43:27;;;;;;;;;;;14.60;99.90;;;;;;5134715;27;19912;-60
2023/07/25 04:45:53;;;;;;;;;;;14.60;99.90;;;;;;5121974;28;19912;-60
2023/07/25 04:48:19;;;;;;;;;;;14.60;99.90;;;;;;5108888;27;19911;-60
2023/07/25 04:50:44;;;;;;;;;;;14.60;99.90;;;;;;5141935;27;19911;-60
2023/07/25 04:53:10;;;;;;;;;;;14.60;99.90;;;;;;5141719;27;19951;-60
2023/07/25 04:55:35;;;;;;;;;;;14.60;99.90;;;;;;5142110;27;19983;-60
2023/07/25 04:58:02;;;;;;;;;;;14.60;99.90;;;;;;5142096;27;20006;-60
2023/07/25 05:00:28;;;;;;;;;;;14.60;99.90;;;;;;5142062;27;19939;-60
2023/07/25 05:02:53;;;;;;;;;;;14.60;99.90;;;;;;5141878;27;19907;-60
2023/07/25 05:05:19;;;;;;;;;;;14.60;99.90;;;;;;5142148;27;19907;-60
2023/07/25 05:07:44;;;;;;;;;;;14.60;99.90;;;;;;5141751;27;19908;-60
2023/07/25 05:10:10;;;;;;;;;;;14.60;99.90;;;;;;5121524;28;20370;-60
2023/07/25 05:12:36;;;;;;;;;;;14.60;99.90;;;;;;5121056;28;19922;-60
2023/07/25 05:15:01;;;;;;;;;;;14.60;99.90;;;;;;5120998;27;19947;-60
2023/07/25 05:17:27;;;;;;;;;;;14.60;99.90;;;;;;5121324;28;19947;-60
2023/07/25 05:19:52;;;;;;;;;;;14.70;99.90;;;;;;5120778;27;19930;-60
2023/07/25 05:22:18;;;;;;;;;;;14.60;99.90;;;;;;5121256;28;19950;-60
2023/07/25 05:24:46;;;;;;;;;;;14.70;99.90;;;;;;5120208;28;20221;-60
2023/07/25 05:27:12;;;;;;;;;;;14.70;99.90;;;;;;5120999;28;19993;-60
2023/07/25 05:29:37;;;;;;;;;;;14.80;99.90;;;;;;5120855;27;19923;-60
2023/07/25 05:32:03;;;;;;;;;;;14.80;99.90;;;;;;5120902;28;19912;-60
2023/07/25 05:34:28;;;;;;;;;;;14.80;99.90;;;;;;5120981;28;19961;-60
2023/07/25 05:36:54;;;;;;;;;;;14.90;99.90;;;;;;5120792;28;19915;-60
2023/07/25 05:39:20;;;;;;;;;;;15.00;99.90;;;;;;5102297;28;19912;-60
2023/07/25 05:41:45;;;;;;;;;;;15.00;99.90;;;;;;5120716;28;20493;-60
2023/07/25 05:44:11;;;;;;;;;;;15.10;99.90;;;;;;5120701;28;19918;-60
2023/07/25 05:46:36;;;;;;;;;;;15.10;99.90;;;;;;5120449;28;19908;-60
2023/07/25 05:49:02;;;;;;;;;;;15.20;99.90;;;;;;5120155;27;19915;-60
2023/07/25 05:51:28;;;;;;;;;;;15.30;99.90;;;;;;5120589;28;19908;-60
2023/07/25 05:53:53;;;;;;;;;;;15.40;99.90;;;;;;5120305;28;19966;-60
2023/07/25 05:56:19;;;;;;;;;;;15.40;99.90;;;;;;5120499;28;20345;-60
2023/07/25 05:58:44;;;;;;;;;;;15.50;99.90;;;;;;5120420;27;19912;-60
2023/07/25 06:01:11;;;;;;;;;;;15.50;99.90;;;;;;5120551;28;19915;-60
2023/07/25 06:03:37;;;;;;;;;;;15.60;99.90;;;;;;5120333;27;21148;-60
2023/07/25 06:06:03;;;;;;;;;;;15.60;99.90;;;;;;5120179;28;19946;-60
2023/07/25 06:08:29;;;;;;;;;;;15.70;99.90;;;;;;5120285;28;19915;-60
2023/07/25 06:10:54;;;;;;;;;;;15.80;99.90;;;;;;5120436;28;19919;-60
2023/07/25 06:13:20;;;;;;;;;;;15.80;99.90;;;;;;5119959;28;19908;-60
2023/07/25 06:15:47;;;;;;;;;;;15.90;99.90;;;;;;5119750;28;19915;-60
2023/07/25 06:18:12;;;;;;;;;;;16.00;99.90;;;;;;5120025;28;19914;-60
2023/07/25 06:20:38;;;;;;;;;;;16.00;99.90;;;;;;5119560;28;20018;-60
2023/07/25 06:23:04;;;;;;;;;;;16.10;99.90;;;;;;5120034;28;19911;-60
2023/07/25 06:25:29;;;;;;;;;;;16.10;99.90;;;;;;5125995;27;20354;-60
2023/07/25 06:27:55;;;;;;;;;;;16.20;99.90;;;;;;5121928;27;20378;-60
2023/07/25 06:30:20;;;;;;;;;;;16.20;99.90;;;;;;5122173;27;20279;-60
2023/07/25 06:32:46;;;;;;;;;;;16.30;99.90;;;;;;5119611;28;19919;-60
2023/07/25 06:35:12;;;;;;;;;;;16.30;99.90;;;;;;5119542;28;19994;-60
2023/07/25 06:37:37;;;;;;;;;;;16.30;99.90;;;;;;5119929;28;19911;-60
2023/07/25 06:40:03;;;;;;;;;;;16.40;99.90;;;;;;5119458;28;19918;-60
2023/07/25 06:42:29;;;;;;;;;;;16.40;99.90;;;;;;5101116;28;19919;-60
2023/07/25 06:44:55;;;;;;;;;;;16.50;99.90;;;;;;5119441;27;19908;-60
2023/07/25 06:47:21;;;;;;;;;;;16.50;99.90;;;;;;5119499;28;19960;-60
2023/07/25 06:49:46;;;;;;;;;;;16.60;99.90;;;;;;5119610;27;19934;-60
2023/07/25 06:52:12;;;;;;;;;;;16.70;99.90;;;;;;5100826;28;19919;-60
2023/07/25 06:54:38;;;;;;;;;;;16.70;99.90;;;;;;5119316;28;19915;-60
2023/07/25 06:57:04;;;;;;;;;;;16.80;99.90;;;;;;5119372;28;19915;-60
2023/07/25 06:59:29;;;;;;;;;;;16.90;99.90;;;;;;5118863;28;19907;-60
2023/07/25 07:01:55;;;;;;;;;;;16.90;99.90;;;;;;5119107;28;19912;-60
2023/07/25 07:04:21;;;;;;;;;;;17.00;99.90;;;;;;5119185;28;19912;-60
2023/07/25 07:06:47;;;;;;;;;;;17.10;99.90;;;;;;5119204;28;19911;-60
2023/07/25 07:09:13;;;;;;;;;;;17.20;99.90;;;;;;5119255;27;20347;-60
2023/07/25 07:11:39;;;;;;;;;;;17.30;99.90;;;;;;5118754;28;19912;-60
2023/07/25 07:14:05;;;;;;;;;;;17.30;99.90;;;;;;5100468;28;19966;-60
2023/07/25 07:16:30;;;;;;;;;;;17.30;99.90;;;;;;5118938;28;20393;-60
2023/07/25 07:18:56;;;;;;;;;;;17.40;99.90;;;;;;5118618;28;19965;-60
2023/07/25 07:21:22;;;;;;;;;;;17.50;99.90;;;;;;5118595;28;19958;-60
2023/07/25 07:23:47;;;;;;;;;;;17.60;99.90;;;;;;5118971;28;20376;-60
2023/07/25 07:26:13;;;;;;;;;;;17.60;99.90;;;;;;5119128;28;19916;-60
2023/07/25 07:28:39;;;;;;;;;;;17.70;99.90;;;;;;5118661;28;20006;-60
2023/07/25 07:31:05;;;;;;;;;;;17.70;99.90;;;;;;5118592;28;19919;-60
2023/07/25 07:33:30;;;;;;;;;;;17.80;99.90;;;;;;5118277;28;20052;-60
2023/07/25 07:35:56;;;;;;;;;;;18.00;99.90;;;;;;5118000;28;19940;-60
2023/07/25 07:38:21;;;;;;;;;;;18.20;99.90;;;;;;5118274;28;19965;-60
2023/07/25 07:40:47;;;;;;;;;;;18.20;99.90;;;;;;5118358;28;20007;-60
2023/07/25 07:43:16;;;;;;;;;;;18.30;99.90;;;;;;5118294;28;19923;-60
2023/07/25 07:45:41;;;;;;;;;;;18.30;99.90;;;;;;5118765;28;20331;-60
2023/07/25 07:48:07;;;;;;;;;;;18.20;99.90;;;;;;5118308;28;19912;-60
2023/07/25 07:50:33;;;;;;;;;;;18.30;99.90;;;;;;5118139;28;20405;-60
2023/07/25 07:52:59;;;;;;;;;;;18.30;99.90;;;;;;5118664;28;19919;-60
2023/07/25 07:55:25;;;;;;;;;;;18.40;99.90;;;;;;5118055;28;19915;-60
2023/07/25 07:57:50;;;;;;;;;;;18.40;99.90;;;;;;5118373;28;19912;-60
2023/07/25 08:00:16;;;;;;;;;;;18.30;99.90;;;;;;5118028;28;19994;-60
2023/07/25 08:02:43;;;;;;;;;;;18.40;99.90;;;;;;5119569;28;19923;-60
2023/07/25 08:05:09;;;;;;;;;;;18.30;99.90;;;;;;5123395;28;19919;-60
2023/07/25 08:07:35;;;;;;;;;;;18.40;99.90;;;;;;5119157;28;20298;-60
2023/07/25 08:10:01;;;;;;;;;;;18.40;99.90;;;;;;5135087;28;20002;-60
2023/07/25 08:12:26;;;;;;;;;;;18.40;99.90;;;;;;5126345;28;19958;-60
2023/07/25 08:14:52;;;;;;;;;;;18.40;99.90;;;;;;5129077;28;19915;-61
2023/07/25 08:17:18;;;;;;;;;;;18.40;99.90;;;;;;5117334;28;19918;-60
2023/07/25 08:19:44;;;;;;;;;;;18.40;99.90;;;;;;5116197;28;20437;-59
2023/07/25 08:22:10;;;;;;;;;;;18.40;99.90;;;;;;5115697;28;19908;-60
2023/07/25 08:24:36;;;;;;;;;;;18.40;99.90;;;;;;5115727;28;19935;-60
2023/07/25 08:27:02;;;;;;;;;;;18.50;99.90;;;;;;5116915;28;21786;-60
2023/07/25 08:29:28;;;;;;;;;;;18.60;99.90;;;;;;5119098;28;19922;-60
2023/07/25 08:31:53;;;;;;;;;;;19.70;99.90;;;;;;5127307;28;19923;-60
2023/07/25 08:34:19;;;;;;;;;;;18.80;99.90;;;;;;5124163;28;20267;-60
2023/07/25 08:36:44;;;;;;;;;;;18.80;99.90;;;;;;5121609;28;20292;-60
2023/07/25 08:39:10;;;;;;;;;;;18.80;99.90;;;;;;5102644;28;19912;-59
2023/07/25 08:41:39;;;;;;;;;;;18.90;99.90;;;;;;5124762;28;19951;-60
2023/07/25 08:44:08;;;;;;;;;;;18.90;99.90;;;;;;5136397;28;20461;-60
2023/07/25 08:46:35;;;;;;;;;;;18.80;99.90;;;;;;5133713;28;20486;-60
2023/07/25 08:49:02;;;;;;;;;;;18.80;99.90;;;;;;5136808;27;19911;-60
2023/07/25 08:51:28;;;;;;;;;;;18.90;99.90;;;;;;5136481;27;19911;-60
2023/07/25 08:54:01;;;;;;;;;;;19.00;99.90;;;;;;5120412;27;19916;-60
2023/07/25 08:56:27;;;;;;;;;;;19.10;99.90;;;;;;5133923;27;20002;-60
2023/07/25 08:58:54;;;;;;;;;;;19.10;99.90;;;;;;5124193;27;20342;-60
2023/07/25 09:01:20;;;;;;;;;;;19.20;99.90;;;;;;5130503;27;19911;-60
2023/07/25 09:03:45;;;;;;;;;;;19.20;99.90;;;;;;5139080;27;19920;-60
2023/07/25 09:06:12;;;;;;;;;;;19.30;99.90;;;;;;5125319;27;19907;-60
2023/07/25 09:08:38;;;;;;;;;;;19.40;99.90;;;;;;5121273;28;19915;-60
2023/07/25 09:11:04;;;;;;;;;;;19.70;99.90;;;;;;5120888;28;19916;-60
2023/07/25 09:13:30;;;;;;;;;;;19.90;99.90;;;;;;5120946;28;20276;-60
2023/07/25 09:15:55;;;;;;;;;;;20.10;99.90;;;;;;5121288;28;19915;-60
2023/07/25 09:18:21;;;;;;;;;;;20.20;99.90;;;;;;5121233;28;19912;-60
2023/07/25 09:20:47;;;;;;;;;;;20.30;99.90;;;;;;5120816;27;19941;-60
2023/07/25 09:23:30;;;;;;;;;;;20.30;99.90;;;;;;5121505;28;19912;-60
2023/07/25 09:26:03;;;;;;;;;;;20.30;99.90;;;;;;5120898;28;19912;-60
2023/07/25 09:28:29;;;;;;;;;;;20.40;99.90;;;;;;5120902;28;19908;-60
2023/07/25 09:30:55;;;;;;;;;;;20.60;99.90;;;;;;5120833;28;19961;-60
2023/07/25 09:33:25;;;;;;;;;;;20.70;99.90;;;;;;5121006;28;19908;-60
2023/07/25 09:35:51;;;;;;;;;;;20.70;99.90;;;;;;5120720;27;19965;-60
2023/07/25 09:38:17;;;;;;;;;;;20.60;99.90;;;;;;5102415;28;19908;-60
2023/07/25 09:40:42;;;;;;;;;;;20.70;99.90;;;;;;5120997;27;19918;-60
2023/07/25 09:43:08;;;;;;;;;;;20.90;99.90;;;;;;5121083;28;19915;-60
2023/07/25 09:45:36;;;;;;;;;;;21.00;99.90;;;;;;5121062;28;19916;-60
2023/07/25 09:48:03;;;;;;;;;;;21.00;99.90;;;;;;5121098;28;19935;-60
2023/07/25 09:50:32;;;;;;;;;;;21.20;99.90;;;;;;5120608;27;19916;-60
2023/07/25 09:53:00;;;;;;;;;;;20.90;99.90;;;;;;5120747;28;20384;-60
2023/07/25 09:55:26;;;;;;;;;;;20.90;99.90;;;;;;5120657;28;19947;-60
2023/07/25 09:57:52;;;;;;;;;;;20.80;99.90;;;;;;5120335;28;19908;-60
2023/07/25 10:00:18;;;;;;;;;;;20.60;99.90;;;;;;5119536;28;20294;-60
2023/07/25 10:02:44;;;;;;;;;;;20.60;99.90;;;;;;5120113;28;20279;-60
2023/07/25 10:05:10;;;;;;;;;;;20.60;99.90;;;;;;5120635;28;19933;-59
2023/07/25 10:07:36;;;;;;;;;;;20.20;99.90;;;;;;5120042;28;19908;-59
2023/07/25 10:10:03;;;;;;;;;;;19.80;99.90;;;;;;5120249;27;19958;-59
2023/07/25 10:12:29;;;;;;;;;;;19.60;99.90;;;;;;5120064;28;20325;-60
2023/07/25 10:14:56;;;;;;;;;;;19.50;99.90;;;;;;5120314;27;19914;-60
2023/07/25 10:17:23;;;;;;;;;;;19.40;99.90;;;;;;5120056;28;19930;-60
2023/07/25 10:19:50;;;;;;;;;;;19.30;99.90;;;;;;5119897;28;20009;-59
2023/07/25 10:22:16;;;;;;;;;;;19.30;99.90;;;;;;5120051;28;20355;-60
2023/07/25 10:24:42;;;;;;;;;;;19.10;99.90;;;;;;5120059;28;19998;-59
2023/07/25 10:27:11;;;;;;;;;;;19.10;99.90;;;;;;5119590;27;19947;-60
2023/07/25 10:29:45;;;;;;;;;;;19.10;99.90;;;;;;5119676;28;19912;-60
2023/07/25 10:32:12;;;;;;;;;;;19.10;99.90;;;;;;5101056;28;20379;-60
2023/07/25 10:34:46;;;;;;;;;;;19.10;99.90;;;;;;5120086;28;19961;-60
2023/07/25 10:37:21;;;;;;;;;;;19.40;99.90;;;;;;5119340;28;19912;-60
2023/07/25 10:39:47;;;;;;;;;;;19.90;99.90;;;;;;5119736;28;19915;-60
2023/07/25 10:42:15;;;;;;;;;;;20.00;99.90;;;;;;5119222;27;19912;-60
2023/07/25 10:44:41;;;;;;;;;;;20.30;99.90;;;;;;5119771;28;19908;-60
2023/07/25 10:47:25;;;;;;;;;;;20.60;99.90;;;;;;5100964;28;20289;-60
2023/07/25 10:49:55;;;;;;;;;;;20.80;99.90;;;;;;5119144;28;19964;-60
2023/07/25 10:52:42;;;;;;;;;;;21.00;99.90;;;;;;5119285;27;19918;-59
2023/07/25 10:55:09;;;;;;;;;;;21.10;99.90;;;;;;5119100;28;20315;-59
2023/07/25 10:57:35;;;;;;;;;;;21.20;99.90;;;;;;5119327;28;19970;-59
2023/07/25 11:00:05;;;;;;;;;;;21.60;99.90;;;;;;5119234;28;19907;-59
2023/07/25 11:02:32;;;;;;;;;;;22.60;99.40;;;;;;5139576;27;19918;-59
2023/07/25 11:05:13;;;;;;;;;;;22.80;99.90;;;;;;5139591;27;19907;-59
2023/07/25 11:07:44;;;;;;;;;;;23.30;93.60;;;;;;5139784;27;19911;-59
2023/07/25 11:10:10;;;;;;;;;;;23.50;90.10;;;;;;5139480;27;20380;-59
2023/07/25 11:12:36;;;;;;;;;;;24.20;95.40;;;;;;5139542;27;19994;-60
2023/07/25 11:15:02;;;;;;;;;;;25.50;92.50;;;;;;5120796;27;20010;-59
2023/07/25 11:17:28;;;;;;;;;;;24.90;78.00;;;;;;5139175;27;19908;-59
2023/07/25 11:19:53;;;;;;;;;;;24.20;91.70;;;;;;5117456;27;20325;-59
2023/07/25 11:22:19;;;;;;;;;;;23.60;94.30;;;;;;5136093;27;19915;-59
2023/07/25 11:24:48;;;;;;;;;;;23.70;94.40;;;;;;5139724;27;20358;-59
2023/07/25 11:27:14;;;;;;;;;;;24.60;94.20;;;;;;5138845;27;20013;-59
2023/07/25 11:29:40;;;;;;;;;;;25.70;77.00;;;;;;5139263;27;19919;-59
2023/07/25 11:32:06;;;;;;;;;;;25.80;75.90;;;;;;5138639;27;20286;-59
2023/07/25 11:34:32;;;;;;;;;;;25.40;84.80;;;;;;5139057;27;20006;-60
2023/07/25 11:36:57;;;;;;;;;;;26.60;84.00;;;;;;5138871;27;19954;-59
2023/07/25 11:39:23;;;;;;;;;;;26.20;75.80;;;;;;5139233;27;19918;-59
2023/07/25 11:41:49;;;;;;;;;;;25.30;71.90;;;;;;5138534;27;19912;-59
2023/07/25 11:44:16;;;;;;;;;;;25.10;89.60;;;;;;5138853;27;20009;-59
2023/07/25 11:46:43;;;;;;;;;;;25.80;81.20;;;;;;5138490;27;20388;-60
2023/07/25 11:49:09;;;;;;;;;;;26.60;88.40;;;;;;5138825;27;20005;-59
2023/07/25 11:51:36;;;;;;;;;;;26.10;66.90;;;;;;5138968;27;20018;-59
2023/07/25 11:54:02;;;;;;;;;;;25.60;73.90;;;;;;5139148;28;19911;-59
2023/07/25 11:56:28;;;;;;;;;;;26.10;75.90;;;;;;5138520;28;20427;-60
2023/07/25 11:58:53;;;;;;;;;;;26.90;85.10;;;;;;5139018;28;19976;-60
2023/07/25 12:01:25;;;;;;;;;;;27.80;75.40;;;;;;5138831;28;19915;-60
2023/07/25 12:03:51;;;;;;;;;;;28.40;67.30;;;;;;5138886;28;19936;-59
2023/07/25 12:06:25;;;;;;;;;;;28.10;69.80;;;;;;5138463;28;19912;-60
2023/07/25 12:08:50;;;;;;;;;;;28.20;73.50;;;;;;5139273;28;19911;-59
2023/07/25 12:11:16;;;;;;;;;;;27.90;61.70;;;;;;5138915;28;19922;-60
2023/07/25 12:13:43;;;;;;;;;;;27.80;64.40;;;;;;5138693;28;20321;-60
2023/07/25 12:16:22;;;;;;;;;;;27.90;65.50;;;;;;5138335;28;19911;-60
2023/07/25 12:18:50;;;;;;;;;;;28.30;61.50;;;;;;5138702;28;20006;-60
2023/07/25 12:21:22;;;;;;;;;;;27.70;64.50;;;;;;5119621;28;19927;-60
2023/07/25 12:23:51;;;;;;;;;;;28.10;64.10;;;;;;5141122;27;19911;-60
2023/07/25 12:26:20;;;;;;;;;;;28.30;66.90;;;;;;5142423;27;20397;-60
2023/07/25 12:28:46;;;;;;;;;;;28.40;65.50;;;;;;5142832;27;19908;-60
2023/07/25 12:31:15;;;;;;;;;;;27.70;60.90;;;;;;5142264;27;19923;-60
2023/07/25 12:33:43;;;;;;;;;;;26.70;68.80;;;;;;5142952;27;19911;-60
2023/07/25 12:36:09;;;;;;;;;;;26.80;64.60;;;;;;5142301;27;19935;-60
2023/07/25 12:38:35;;;;;;;;;;;27.60;63.50;;;;;;5142721;27;19908;-60
2023/07/25 12:41:01;;;;;;;;;;;28.20;68.10;;;;;;5141908;27;19942;-60
2023/07/25 12:43:26;;;;;;;;;;;28.20;63.00;;;;;;5142430;27;19908;-60
2023/07/25 12:45:52;;;;;;;;;;;27.20;64.10;;;;;;5131097;27;20274;-60
2023/07/25 12:48:17;;;;;;;;;;;27.60;65.20;;;;;;5127172;27;19908;-60
2023/07/25 12:50:43;;;;;;;;;;;28.10;65.00;;;;;;5131951;27;19919;-60
2023/07/25 12:53:09;;;;;;;;;;;28.30;64.80;;;;;;5128077;27;19935;-60
2023/07/25 12:55:34;;;;;;;;;;;27.60;62.30;;;;;;5129973;27;19911;-60
2023/07/25 12:58:00;;;;;;;;;;;26.80;63.80;;;;;;5128876;27;20431;-60
2023/07/25 13:00:26;;;;;;;;;;;26.30;62.60;;;;;;5141985;27;19992;-59
2023/07/25 13:02:52;;;;;;;;;;;26.20;66.40;;;;;;5137704;27;20331;-60
2023/07/25 13:05:17;;;;;;;;;;;26.60;66.40;;;;;;5140176;27;19919;-60
2023/07/25 13:07:43;;;;;;;;;;;26.80;66.40;;;;;;5138106;27;19918;-60
2023/07/25 13:10:10;;;;;;;;;;;26.70;65.80;;;;;;5142019;27;19911;-60
2023/07/25 13:12:36;;;;;;;;;;;27.10;63.60;;;;;;5122420;27;19918;-60
2023/07/25 13:15:03;;;;;;;;;;;27.20;66.60;;;;;;5123372;27;19916;-59
2023/07/25 13:17:29;;;;;;;;;;;26.80;66.60;;;;;;5127337;27;19912;-60
2023/07/25 13:19:54;;;;;;;;;;;27.10;64.10;;;;;;5127839;27;19924;-60
2023/07/25 13:22:20;;;;;;;;;;;27.30;65.90;;;;;;5125786;27;19915;-60
2023/07/25 13:24:46;;;;;;;;;;;27.10;62.40;;;;;;5128705;27;20055;-59
2023/07/25 13:27:11;;;;;;;;;;;26.80;66.70;;;;;;5105243;28;19918;-60
2023/07/25 13:29:38;;;;;;;;;;;26.60;65.90;;;;;;5125980;27;19916;-60
2023/07/25 13:32:04;;;;;;;;;;;26.60;65.90;;;;;;5112944;27;19970;-59
2023/07/25 13:34:29;;;;;;;;;;;26.60;64.10;;;;;;5119585;28;19912;-59
2023/07/25 13:36:55;;;;;;;;;;;26.40;63.90;;;;;;5121096;28;19912;-59
2023/07/25 13:39:21;;;;;;;;;;;26.30;62.60;;;;;;5125712;27;19911;-59
2023/07/25 13:41:46;;;;;;;;;;;26.30;63.50;;;;;;5133388;27;19911;-59
2023/07/25 13:44:12;;;;;;;;;;;26.10;62.90;;;;;;5122942;27;19908;-60
2023/07/25 13:46:38;;;;;;;;;;;26.10;63.30;;;;;;5121342;27;19918;-59
2023/07/25 13:49:04;;;;;;;;;;;26.30;63.50;;;;;;5120851;28;19918;-60
2023/07/25 13:51:29;;;;;;;;;;;26.40;63.70;;;;;;5120667;28;19915;-59
2023/07/25 13:53:55;;;;;;;;;;;26.50;63.50;;;;;;5120862;27;20007;-59
2023/07/25 13:56:21;;;;;;;;;;;26.10;64.20;;;;;;5120521;27;19915;-60
2023/07/25 13:58:47;;;;;;;;;;;26.20;64.00;;;;;;5121030;27;19912;-60
2023/07/25 14:01:13;;;;;;;;;;;26.40;64.10;;;;;;5120017;28;19912;-60
2023/07/25 14:03:38;;;;;;;;;;;26.10;62.20;;;;;;5101795;28;19914;-60
2023/07/25 14:06:04;;;;;;;;;;;25.70;64.80;;;;;;5120174;28;19934;-60
2023/07/25 14:08:31;;;;;;;;;;;25.40;66.60;;;;;;5119248;28;19908;-60
2023/07/25 14:10:56;;;;;;;;;;;25.60;65.10;;;;;;5128450;27;19915;-60